createdAt,value
2017-04-06T00:02:12.949Z,0
2017-04-06T00:03:23.309Z,0
2017-04-06T00:04:33.648Z,0
2017-04-06T00:05:43.983Z,0
2017-04-06T00:06:54.008Z,0
2017-04-06T00:08:04.388Z,0
2017-04-06T00:09:14.718Z,0
2017-04-06T00:10:25.052Z,0
2017-04-06T00:11:35.067Z,0
2017-04-06T00:12:45.391Z,0
2017-04-06T00:13:55.736Z,0
2017-04-06T00:15:05.772Z,0
2017-04-06T00:16:16.130Z,0
2017-04-06T00:17:26.459Z,0
2017-04-06T00:18:36.482Z,0
2017-04-06T00:19:46.494Z,0
2017-04-06T00:20:56.832Z,0
2017-04-06T00:22:07.168Z,0
2017-04-06T00:23:17.505Z,0
2017-04-06T00:24:27.839Z,0
2017-04-06T00:25:38.177Z,0
2017-04-06T00:26:48.208Z,0
2017-04-06T00:27:58.546Z,0
2017-04-06T00:29:08.878Z,0
2017-04-06T00:30:19.220Z,0
2017-04-06T00:31:29.596Z,0
2017-04-06T00:32:39.933Z,0
2017-04-06T00:33:50.259Z,0
2017-04-06T00:35:00.592Z,0
2017-04-06T00:36:10.912Z,0
2017-04-06T00:37:21.239Z,0
2017-04-06T00:38:31.566Z,0
2017-04-06T00:39:41.594Z,0
2017-04-06T00:40:51.938Z,0
2017-04-06T00:42:02.276Z,0
2017-04-06T00:43:12.660Z,0
2017-04-06T00:44:22.378Z,0
2017-04-06T00:45:32.707Z,0
2017-04-06T00:46:43.068Z,0
2017-04-06T00:47:53.406Z,0
2017-04-06T00:49:03.752Z,0
2017-04-06T00:50:14.129Z,0
2017-04-06T00:51:24.472Z,0
2017-04-06T00:52:34.811Z,0
2017-04-06T00:53:45.149Z,0
2017-04-06T00:54:55.175Z,0
2017-04-06T00:56:05.214Z,0
2017-04-06T00:57:15.254Z,0
2017-04-06T00:58:25.263Z,0
2017-04-06T00:59:35.594Z,0
2017-04-06T01:00:45.959Z,0
2017-04-06T01:01:55.996Z,0
2017-04-06T01:03:06.330Z,0
2017-04-06T01:04:16.664Z,0
2017-04-06T01:05:26.992Z,0
2017-04-06T01:06:37.340Z,0
2017-04-06T01:07:47.683Z,0
2017-04-06T01:08:58.016Z,0
2017-04-06T01:10:08.359Z,0
2017-04-06T01:11:18.686Z,0
2017-04-06T01:12:29.020Z,0
2017-04-06T01:13:39.343Z,0
2017-04-06T01:14:49.670Z,0
2017-04-06T01:16:00.011Z,0
2017-04-06T01:17:10.361Z,0
2017-04-06T01:18:20.689Z,0
2017-04-06T01:19:30.695Z,0
2017-04-06T01:20:41.033Z,0
2017-04-06T01:21:51.046Z,0
2017-04-06T01:23:01.361Z,0
2017-04-06T01:24:11.062Z,0
2017-04-06T01:25:21.395Z,0
2017-04-06T01:26:31.716Z,0
2017-04-06T01:27:42.038Z,0
2017-04-06T01:28:52.053Z,0
2017-04-06T01:30:02.080Z,0
2017-04-06T01:31:12.413Z,0
2017-04-06T01:32:22.736Z,0
2017-04-06T01:33:33.076Z,0
2017-04-06T01:34:42.773Z,0
2017-04-06T01:35:53.116Z,0
2017-04-06T01:37:03.161Z,0
2017-04-06T01:38:13.495Z,0
2017-04-06T01:39:23.515Z,0
2017-04-06T01:40:33.842Z,0
2017-04-06T01:41:44.180Z,0
2017-04-06T01:42:54.513Z,0
2017-04-06T01:44:04.523Z,0
2017-04-06T01:45:13.926Z,0
2017-04-06T01:46:24.252Z,0
2017-04-06T01:47:33.949Z,0
2017-04-06T01:48:44.278Z,0
2017-04-06T01:49:54.285Z,0
2017-04-06T01:51:04.611Z,0
2017-04-06T01:52:14.930Z,0
2017-04-06T01:53:25.285Z,0
2017-04-06T01:54:35.620Z,0
2017-04-06T01:55:45.643Z,0
2017-04-06T01:56:55.650Z,0
2017-04-06T01:58:05.676Z,0
2017-04-06T01:59:15.695Z,0
2017-04-06T02:00:26.023Z,0
2017-04-06T02:01:36.378Z,0
2017-04-06T02:02:46.087Z,0
2017-04-06T02:03:56.421Z,0
2017-04-06T02:05:06.469Z,0
2017-04-06T02:06:16.811Z,0
2017-04-06T02:07:27.151Z,0
2017-04-06T02:08:37.183Z,0
2017-04-06T02:09:47.520Z,0
2017-04-06T02:10:57.530Z,0
2017-04-06T02:12:07.875Z,0
2017-04-06T02:13:17.941Z,0
2017-04-06T02:14:28.274Z,0
2017-04-06T02:15:38.359Z,0
2017-04-06T02:16:48.696Z,0
2017-04-06T02:17:59.041Z,0
2017-04-06T02:19:09.375Z,0
2017-04-06T02:20:19.401Z,0
2017-04-06T02:21:29.733Z,0
2017-04-06T02:22:40.060Z,0
2017-04-06T02:23:50.387Z,0
2017-04-06T02:25:00.728Z,0
2017-04-06T02:26:10.758Z,0
2017-04-06T02:27:21.102Z,0
2017-04-06T02:28:31.439Z,0
2017-04-06T02:29:41.444Z,0
2017-04-06T02:30:51.147Z,0
2017-04-06T02:32:01.473Z,0
2017-04-06T02:33:11.811Z,0
2017-04-06T02:34:21.832Z,0
2017-04-06T02:35:32.173Z,0
2017-04-06T02:36:42.191Z,0
2017-04-06T02:37:52.516Z,0
2017-04-06T02:39:02.829Z,0
2017-04-06T02:40:13.152Z,0
2017-04-06T02:41:23.172Z,0
2017-04-06T02:42:33.512Z,0
2017-04-06T02:43:43.874Z,0
2017-04-06T02:44:54.208Z,0
2017-04-06T02:46:04.568Z,0
2017-04-06T02:47:14.892Z,0
2017-04-06T02:48:25.226Z,0
2017-04-06T02:49:35.548Z,0
2017-04-06T02:50:45.601Z,0
2017-04-06T02:51:55.628Z,0
2017-04-06T02:53:05.640Z,0
2017-04-06T02:54:16.222Z,0
2017-04-06T02:55:26.561Z,0
2017-04-06T02:56:36.928Z,0
2017-04-06T02:57:47.267Z,0
2017-04-06T02:58:57.596Z,0
2017-04-06T03:00:07.928Z,0
2017-04-06T03:01:18.273Z,0
2017-04-06T03:32:54.146Z,0
2017-04-06T03:34:04.485Z,0
2017-04-06T03:35:14.493Z,0
2017-04-06T03:36:24.814Z,0
2017-04-06T03:37:34.833Z,0
2017-04-06T03:38:45.160Z,0
2017-04-06T03:39:55.193Z,0
2017-04-06T03:41:05.228Z,0
2017-04-06T03:42:15.551Z,0
2017-04-06T03:43:25.889Z,0
2017-04-06T03:44:35.910Z,0
2017-04-06T03:45:46.244Z,0
2017-04-06T03:46:56.579Z,0
2017-04-06T03:48:06.614Z,0
2017-04-06T03:49:16.940Z,0
2017-04-06T03:50:26.967Z,0
2017-04-06T03:51:37.295Z,0
2017-04-06T03:52:47.633Z,0
2017-04-06T03:53:57.962Z,0
2017-04-06T03:55:08.317Z,0
2017-04-06T03:56:18.395Z,0
2017-04-06T03:57:28.440Z,0
2017-04-06T03:58:38.800Z,0
2017-04-06T03:59:48.818Z,0
2017-04-06T04:00:59.148Z,0
2017-04-06T04:02:09.535Z,0
2017-04-06T04:03:19.533Z,0
2017-04-06T04:04:29.557Z,0
2017-04-06T04:05:39.881Z,0
2017-04-06T04:06:49.912Z,0
2017-04-06T04:07:59.959Z,0
2017-04-06T04:09:09.975Z,0
2017-04-06T04:10:20.003Z,0
2017-04-06T04:11:30.038Z,0
2017-04-06T04:12:40.386Z,0
2017-04-06T04:13:50.711Z,0
2017-04-06T04:15:01.074Z,0
2017-04-06T04:16:11.110Z,0
2017-04-06T04:17:21.150Z,0
2017-04-06T04:18:31.178Z,0
2017-04-06T04:19:41.506Z,0
2017-04-06T04:20:51.828Z,0
2017-04-06T04:22:01.845Z,0
2017-04-06T04:23:12.202Z,0
2017-04-06T04:24:21.916Z,0
2017-04-06T04:25:32.031Z,0
2017-04-06T04:26:42.371Z,0
2017-04-06T04:27:52.424Z,0
2017-04-06T04:29:02.453Z,0
2017-04-06T04:30:12.474Z,0
2017-04-06T04:31:22.491Z,0
2017-04-06T04:32:32.837Z,5
2017-04-06T04:33:43.162Z,5
2017-04-06T04:34:53.501Z,5
2017-04-06T04:36:03.845Z,5
2017-04-06T04:37:14.201Z,5
2017-04-06T04:38:24.213Z,5
2017-04-06T04:39:34.550Z,5
2017-04-06T04:40:44.906Z,5
2017-04-06T04:41:54.935Z,5
2017-04-06T04:43:05.270Z,10
2017-04-06T04:44:15.283Z,10
2017-04-06T04:45:25.614Z,10
2017-04-06T04:46:35.651Z,10
2017-04-06T04:47:45.669Z,10
2017-04-06T04:48:55.681Z,10
2017-04-06T04:50:06.039Z,15
2017-04-06T04:51:16.386Z,15
2017-04-06T04:52:26.749Z,15
2017-04-06T04:53:37.070Z,20
2017-04-06T04:54:47.387Z,20
2017-04-06T04:55:57.759Z,25
2017-04-06T04:57:08.097Z,30
2017-04-06T04:58:18.437Z,35
2017-04-06T04:59:28.457Z,40
2017-04-06T05:00:38.477Z,45
2017-04-06T05:01:48.835Z,45
2017-04-06T05:02:58.850Z,45
2017-04-06T05:04:08.873Z,50
2017-04-06T05:05:19.204Z,55
2017-04-06T05:06:29.525Z,60
2017-04-06T05:07:39.239Z,105
2017-04-06T05:08:49.254Z,120
2017-04-06T05:09:59.264Z,125
2017-04-06T05:11:09.597Z,130
2017-04-06T05:12:19.993Z,140
2017-04-06T05:13:30.335Z,145
2017-04-06T05:14:40.049Z,150
2017-04-06T05:15:50.389Z,150
2017-04-06T05:17:00.763Z,155
2017-04-06T05:18:10.782Z,155
2017-04-06T05:19:21.096Z,150
2017-04-06T05:20:31.430Z,125
2017-04-06T05:21:41.763Z,95
2017-04-06T05:22:52.094Z,95
2017-04-06T05:24:02.417Z,95
2017-04-06T05:25:12.748Z,90
2017-04-06T05:26:23.081Z,90
2017-04-06T05:27:33.112Z,90
2017-04-06T05:28:43.457Z,85
2017-04-06T05:29:53.159Z,100
2017-04-06T05:31:03.491Z,100
2017-04-06T05:32:13.518Z,105
2017-04-06T05:33:23.849Z,120
2017-04-06T05:34:34.191Z,130
2017-04-06T05:35:44.228Z,130
2017-04-06T05:36:54.565Z,130
2017-04-06T05:38:04.917Z,120
2017-04-06T05:39:15.276Z,110
2017-04-06T05:40:25.606Z,110
2017-04-06T05:41:35.649Z,110
2017-04-06T05:42:45.982Z,110
2017-04-06T05:43:56.311Z,110
2017-04-06T05:45:06.328Z,115
2017-04-06T05:46:16.661Z,115
2017-04-06T05:47:27.047Z,120
2017-04-06T05:48:37.087Z,145
2017-04-06T05:49:47.097Z,160
2017-04-06T05:50:57.443Z,165
2017-04-06T05:52:07.475Z,150
2017-04-06T05:53:17.836Z,130
2017-04-06T05:54:27.864Z,125
2017-04-06T05:55:37.884Z,130
2017-04-06T05:56:48.222Z,150
2017-04-06T05:57:58.555Z,160
2017-04-06T05:59:08.596Z,160
2017-04-06T06:00:18.942Z,145
2017-04-06T06:01:29.277Z,145
2017-04-06T06:02:39.597Z,140
2017-04-06T06:03:49.919Z,140
2017-04-06T06:05:00.256Z,145
2017-04-06T06:06:10.591Z,150
2017-04-06T06:07:20.614Z,145
2017-04-06T06:08:30.963Z,145
2017-04-06T06:09:40.676Z,140
2017-04-06T06:10:51.009Z,145
2017-04-06T06:12:01.327Z,145
2017-04-06T06:13:11.340Z,140
2017-04-06T06:14:21.370Z,140
2017-04-06T06:15:31.390Z,140
2017-04-06T06:16:41.713Z,150
2017-04-06T06:17:52.050Z,150
2017-04-06T06:19:02.379Z,150
2017-04-06T06:20:12.392Z,150
2017-04-06T06:21:22.406Z,145
2017-04-06T06:22:32.743Z,145
2017-04-06T06:23:42.759Z,145
2017-04-06T06:24:52.776Z,145
2017-04-06T06:26:03.113Z,145
2017-04-06T06:27:13.135Z,140
2017-04-06T06:28:23.510Z,140
2017-04-06T06:29:33.847Z,140
2017-04-06T06:30:43.883Z,140
2017-04-06T06:31:54.226Z,140
2017-04-06T06:33:04.565Z,145
2017-04-06T06:34:14.637Z,155
2017-04-06T06:35:24.656Z,160
2017-04-06T06:36:34.990Z,160
2017-04-06T06:37:45.344Z,170
2017-04-06T06:38:55.669Z,165
2017-04-06T06:40:06.054Z,170
2017-04-06T06:41:16.386Z,175
2017-04-06T06:42:26.403Z,180
2017-04-06T06:43:36.112Z,190
2017-04-06T06:44:46.450Z,205
2017-04-06T06:45:56.782Z,215
2017-04-06T06:47:07.149Z,220
2017-04-06T06:48:17.478Z,220
2017-04-06T06:49:27.842Z,225
2017-04-06T06:50:38.179Z,215
2017-04-06T06:51:48.506Z,195
2017-04-06T06:52:58.865Z,205
2017-04-06T06:54:08.889Z,205
2017-04-06T06:55:19.241Z,205
2017-04-06T06:56:29.575Z,235
2017-04-06T06:57:39.599Z,245
2017-04-06T06:58:49.645Z,225
2017-04-06T06:59:59.977Z,240
2017-04-06T07:01:09.999Z,210
2017-04-06T07:02:20.327Z,230
2017-04-06T07:03:30.665Z,200
2017-04-06T07:04:41.008Z,220
2017-04-06T07:05:51.031Z,215
2017-04-06T07:07:01.383Z,200
2017-04-06T07:08:11.723Z,180
2017-04-06T07:09:22.075Z,150
2017-04-06T07:10:32.400Z,195
2017-04-06T07:11:42.738Z,195
2017-04-06T07:12:53.074Z,195
2017-04-06T07:14:03.415Z,185
2017-04-06T07:15:13.765Z,200
2017-04-06T07:16:23.811Z,190
2017-04-06T07:17:33.832Z,190
2017-04-06T07:18:43.853Z,190
2017-04-06T07:19:54.191Z,190
2017-04-06T07:21:04.189Z,190
2017-04-06T07:22:14.574Z,185
2017-04-06T07:23:24.591Z,190
2017-04-06T07:24:34.315Z,205
2017-04-06T07:25:44.648Z,230
2017-04-06T07:26:54.685Z,255
2017-04-06T07:28:04.708Z,275
2017-04-06T07:29:15.056Z,255
2017-04-06T07:30:24.767Z,295
2017-04-06T07:31:35.110Z,295
2017-04-06T07:32:45.475Z,265
2017-04-06T07:33:55.847Z,295
2017-04-06T07:35:05.562Z,235
2017-04-06T07:36:15.916Z,235
2017-04-06T07:37:25.942Z,255
2017-04-06T07:38:36.289Z,300
2017-04-06T07:39:46.324Z,255
2017-04-06T07:40:56.666Z,260
2017-04-06T07:42:07.041Z,285
2017-04-06T07:43:17.365Z,270
2017-04-06T07:44:27.691Z,270
2017-04-06T07:45:37.726Z,270
2017-04-06T07:46:48.072Z,300
2017-04-06T07:47:58.129Z,300
2017-04-06T07:49:08.148Z,330
2017-04-06T07:50:18.490Z,310
2017-04-06T07:51:28.842Z,260
2017-04-06T07:52:39.188Z,250
2017-04-06T07:53:49.526Z,245
2017-04-06T07:54:59.858Z,235
2017-04-06T07:56:10.211Z,225
2017-04-06T07:57:20.547Z,230
2017-04-06T07:58:30.577Z,225
2017-04-06T07:59:40.914Z,230
2017-04-06T08:00:51.256Z,230
2017-04-06T08:02:01.607Z,245
2017-04-06T08:03:11.636Z,235
2017-04-06T08:04:21.663Z,235
2017-04-06T08:05:31.692Z,220
2017-04-06T08:06:42.035Z,215
2017-04-06T08:07:52.097Z,210
2017-04-06T08:09:02.437Z,200
2017-04-06T08:10:12.460Z,195
2017-04-06T08:11:22.793Z,195
2017-04-06T08:12:32.841Z,190
2017-04-06T08:13:42.567Z,195
2017-04-06T08:14:52.604Z,185
2017-04-06T08:16:02.631Z,185
2017-04-06T08:17:12.965Z,185
2017-04-06T08:18:23.305Z,185
2017-04-06T08:19:33.634Z,180
2017-04-06T08:20:43.964Z,185
2017-04-06T08:21:54.317Z,190
2017-04-06T08:23:04.654Z,195
2017-04-06T08:24:14.673Z,205
2017-04-06T08:25:25.010Z,210
2017-04-06T08:26:35.043Z,220
2017-04-06T08:27:45.375Z,225
2017-04-06T08:28:55.413Z,230
2017-04-06T08:30:05.435Z,235
2017-04-06T08:31:15.770Z,240
2017-04-06T08:32:26.340Z,255
2017-04-06T08:33:36.677Z,270
2017-04-06T08:34:47.036Z,280
2017-04-06T08:35:57.060Z,280
2017-04-06T08:37:07.404Z,290
2017-04-06T08:38:17.737Z,295
2017-04-06T08:39:27.125Z,295
2017-04-06T08:40:36.831Z,290
2017-04-06T08:41:47.183Z,285
2017-04-06T08:42:57.206Z,280
2017-04-06T08:44:07.246Z,285
2017-04-06T08:45:17.577Z,285
2017-04-06T08:46:27.288Z,270
2017-04-06T08:47:37.296Z,255
2017-04-06T08:48:47.309Z,250
2017-04-06T08:49:57.661Z,265
2017-04-06T08:51:07.999Z,255
2017-04-06T08:52:18.347Z,245
2017-04-06T08:53:28.386Z,250
2017-04-06T08:54:38.736Z,255
2017-04-06T08:55:49.101Z,255
2017-04-06T08:56:58.818Z,250
2017-04-06T08:58:09.156Z,245
2017-04-06T08:59:19.197Z,255
2017-04-06T09:00:29.228Z,265
2017-04-06T09:01:39.563Z,250
2017-04-06T09:02:49.897Z,245
2017-04-06T09:04:00.238Z,250
2017-04-06T09:05:10.577Z,255
2017-04-06T09:06:20.918Z,275
2017-04-06T09:07:30.629Z,265
2017-04-06T09:08:40.973Z,300
2017-04-06T09:09:51.327Z,270
2017-04-06T09:11:01.356Z,230
2017-04-06T09:12:11.116Z,225
2017-04-06T09:13:21.172Z,205
2017-04-06T09:14:31.534Z,210
2017-04-06T09:15:41.558Z,195
2017-04-06T09:16:51.904Z,200
2017-04-06T09:18:02.286Z,230
2017-04-06T09:19:12.642Z,315
2017-04-06T09:20:22.999Z,315
2017-04-06T09:21:33.367Z,235
2017-04-06T09:22:43.727Z,275
2017-04-06T09:23:54.059Z,235
2017-04-06T09:25:04.092Z,250
2017-04-06T09:26:14.119Z,255
2017-04-06T09:27:24.461Z,315
2017-04-06T09:28:34.805Z,285
2017-04-06T09:29:45.149Z,265
2017-04-06T09:30:55.178Z,265
2017-04-06T09:32:05.551Z,250
2017-04-06T09:33:15.595Z,240
2017-04-06T09:34:25.943Z,220
2017-04-06T09:35:36.009Z,215
2017-04-06T09:36:46.404Z,270
2017-04-06T09:37:56.753Z,295
2017-04-06T09:39:07.090Z,310
2017-04-06T09:40:17.132Z,330
2017-04-06T09:41:27.176Z,350
2017-04-06T09:42:37.204Z,390
2017-04-06T09:43:47.544Z,415
2017-04-06T09:44:57.895Z,425
2017-04-06T09:46:08.235Z,430
2017-04-06T09:47:18.281Z,425
2017-04-06T09:48:28.648Z,430
2017-04-06T09:49:38.995Z,390
2017-04-06T09:50:48.708Z,335
2017-04-06T09:51:58.410Z,380
2017-04-06T09:53:08.453Z,350
2017-04-06T09:54:19.316Z,285
2017-04-06T09:55:31.631Z,320
2017-04-06T09:56:41.984Z,320
2017-04-06T09:57:52.356Z,355
2017-04-06T09:59:02.692Z,355
2017-04-06T10:00:12.752Z,355
2017-04-06T10:01:23.105Z,320
2017-04-06T10:02:33.136Z,345
2017-04-06T10:03:42.866Z,345
2017-04-06T10:04:52.973Z,295
2017-04-06T10:06:03.312Z,325
2017-04-06T10:07:13.349Z,350
2017-04-06T10:08:23.722Z,265
2017-04-06T10:09:34.075Z,330
2017-04-06T10:10:44.426Z,340
2017-04-06T10:11:54.454Z,345
2017-04-06T10:13:04.792Z,300
2017-04-06T10:14:14.824Z,225
2017-04-06T10:15:24.851Z,210
2017-04-06T10:16:35.257Z,220
2017-04-06T10:17:45.617Z,335
2017-04-06T10:18:55.959Z,255
2017-04-06T10:20:06.311Z,195
2017-04-06T10:21:16.659Z,185
2017-04-06T10:22:27.054Z,170
2017-04-06T10:23:37.216Z,160
2017-04-06T10:24:47.562Z,150
2017-04-06T10:25:57.604Z,175
2017-04-06T10:27:07.932Z,200
2017-04-06T10:28:17.660Z,220
2017-04-06T10:29:27.995Z,345
2017-04-06T10:30:38.344Z,315
2017-04-06T10:31:48.750Z,215
2017-04-06T10:32:59.087Z,165
2017-04-06T10:34:09.489Z,175
2017-04-06T10:35:19.838Z,180
2017-04-06T10:36:30.201Z,190
2017-04-06T10:37:40.219Z,195
2017-04-06T10:38:50.570Z,200
2017-04-06T10:40:00.912Z,210
2017-04-06T10:41:10.952Z,220
2017-04-06T10:42:21.312Z,230
2017-04-06T10:43:31.644Z,250
2017-04-06T10:44:41.682Z,250
2017-04-06T10:45:51.701Z,235
2017-04-06T10:47:02.065Z,215
2017-04-06T10:48:12.079Z,215
2017-04-06T10:49:21.793Z,300
2017-04-06T10:50:32.151Z,330
2017-04-06T10:51:42.203Z,325
2017-04-06T10:52:52.243Z,295
2017-04-06T10:54:02.606Z,390
2017-04-06T10:55:12.973Z,420
2017-04-06T10:56:23.010Z,355
2017-04-06T10:57:33.427Z,270
2017-04-06T10:58:43.759Z,245
2017-04-06T10:59:54.093Z,245
2017-04-06T11:01:04.449Z,230
2017-04-06T11:02:14.801Z,220
2017-04-06T11:03:25.186Z,215
2017-04-06T11:04:35.228Z,210
2017-04-06T11:05:45.576Z,230
2017-04-06T11:06:55.912Z,230
2017-04-06T11:08:06.238Z,220
2017-04-06T11:09:16.268Z,215
2017-04-06T11:10:26.606Z,350
2017-04-06T11:11:36.342Z,210
2017-04-06T11:12:46.696Z,200
2017-04-06T11:13:57.057Z,200
2017-04-06T11:15:07.442Z,200
2017-04-06T11:16:17.802Z,210
2017-04-06T11:17:27.832Z,215
2017-04-06T11:18:37.847Z,215
2017-04-06T11:19:48.203Z,210
2017-04-06T11:20:58.554Z,195
2017-04-06T11:22:08.910Z,200
2017-04-06T11:23:19.262Z,220
2017-04-06T11:24:29.299Z,240
2017-04-06T11:25:39.644Z,270
2017-04-06T11:26:49.692Z,265
2017-04-06T11:28:00.037Z,275
2017-04-06T11:29:10.396Z,295
2017-04-06T11:30:20.429Z,425
2017-04-06T11:31:29.875Z,290
2017-04-06T11:32:40.234Z,255
2017-04-06T11:33:50.566Z,240
2017-04-06T11:35:00.895Z,250
2017-04-06T11:36:11.248Z,255
2017-04-06T11:37:21.284Z,255
2017-04-06T11:38:31.639Z,235
2017-04-06T11:39:41.977Z,205
2017-04-06T11:40:51.721Z,185
2017-04-06T11:42:01.756Z,170
2017-04-06T11:43:12.120Z,150
2017-04-06T11:44:22.456Z,150
2017-04-06T11:45:32.794Z,150
2017-04-06T11:46:43.144Z,150
2017-04-06T11:47:53.176Z,150
2017-04-06T11:49:03.518Z,160
2017-04-06T11:50:13.882Z,190
2017-04-06T11:51:24.207Z,225
2017-04-06T11:52:34.553Z,270
2017-04-06T11:53:44.570Z,255
2017-04-06T11:54:54.904Z,260
2017-04-06T11:56:04.982Z,265
2017-04-06T11:57:15.351Z,270
2017-04-06T11:58:25.070Z,285
2017-04-06T11:59:35.414Z,280
2017-04-06T12:00:45.455Z,285
2017-04-06T12:01:55.558Z,300
2017-04-06T12:03:05.582Z,325
2017-04-06T12:04:15.289Z,345
2017-04-06T12:05:25.322Z,445
2017-04-06T12:06:35.382Z,340
2017-04-06T12:07:45.165Z,430
2017-04-06T12:08:55.491Z,375
2017-04-06T12:10:05.520Z,250
2017-04-06T12:11:15.863Z,220
2017-04-06T12:12:26.206Z,210
2017-04-06T12:13:36.394Z,200
2017-04-06T12:14:46.735Z,215
2017-04-06T12:15:57.092Z,225
2017-04-06T12:17:07.162Z,225
2017-04-06T12:18:17.559Z,235
2017-04-06T12:19:27.629Z,390
2017-04-06T12:20:37.722Z,350
2017-04-06T12:21:48.134Z,390
2017-04-06T12:22:58.202Z,300
2017-04-06T12:24:08.616Z,255
2017-04-06T12:25:18.967Z,270
2017-04-06T12:26:29.303Z,275
2017-04-06T12:27:39.648Z,285
2017-04-06T12:28:49.993Z,255
2017-04-06T12:30:00.348Z,235
2017-04-06T12:31:10.721Z,215
2017-04-06T12:32:21.098Z,200
2017-04-06T12:33:31.147Z,175
2017-04-06T12:34:41.474Z,155
2017-04-06T12:35:51.836Z,155
2017-04-06T12:37:02.254Z,145
2017-04-06T12:38:12.596Z,140
2017-04-06T12:39:22.621Z,145
2017-04-06T12:40:32.650Z,275
2017-04-06T12:41:43.029Z,305
2017-04-06T12:42:52.815Z,215
2017-04-06T12:44:02.839Z,170
2017-04-06T12:45:13.846Z,155
2017-04-06T12:46:24.231Z,170
2017-04-06T12:47:34.607Z,210
2017-04-06T12:48:44.982Z,265
2017-04-06T12:49:55.047Z,275
2017-04-06T12:51:05.422Z,275
2017-04-06T12:52:15.784Z,280
2017-04-06T12:53:25.854Z,280
2017-04-06T12:54:36.238Z,290
2017-04-06T12:55:46.007Z,290
2017-04-06T12:56:56.075Z,295
2017-04-06T12:58:06.130Z,285
2017-04-06T12:59:16.516Z,275
2017-04-06T13:00:26.937Z,175
2017-04-06T13:01:36.992Z,220
2017-04-06T13:02:47.410Z,290
2017-04-06T13:03:57.792Z,285
2017-04-06T13:05:08.176Z,160
2017-04-06T13:06:18.548Z,275
2017-04-06T13:07:28.988Z,285
2017-04-06T13:08:39.373Z,305
2017-04-06T13:09:49.737Z,305
2017-04-06T13:10:59.763Z,295
2017-04-06T13:12:10.429Z,295
2017-04-06T13:13:20.768Z,175
2017-04-06T13:14:31.157Z,170
2017-04-06T13:15:41.503Z,275
2017-04-06T13:16:51.597Z,275
2017-04-06T13:18:01.972Z,265
2017-04-06T13:19:11.672Z,260
2017-04-06T13:20:22.037Z,270
2017-04-06T13:21:32.398Z,275
2017-04-06T13:22:42.745Z,290
2017-04-06T13:23:53.102Z,305
2017-04-06T13:25:03.450Z,315
2017-04-06T13:26:13.805Z,325
2017-04-06T13:27:24.211Z,345
2017-04-06T13:28:34.557Z,355
2017-04-06T13:29:44.589Z,370
2017-04-06T13:30:54.940Z,325
2017-04-06T13:32:05.025Z,250
2017-04-06T13:33:15.370Z,360
2017-04-06T13:34:25.429Z,305
2017-04-06T13:35:35.489Z,230
2017-04-06T13:36:45.856Z,215
2017-04-06T13:37:56.218Z,210
2017-04-06T13:39:06.584Z,225
2017-04-06T13:40:16.933Z,235
2017-04-06T13:41:27.336Z,270
2017-04-06T13:42:37.692Z,180
2017-04-06T13:43:47.735Z,195
2017-04-06T13:44:58.087Z,300
2017-04-06T13:46:08.105Z,320
2017-04-06T13:47:18.468Z,330
2017-04-06T13:48:28.811Z,250
2017-04-06T13:49:39.165Z,240
2017-04-06T13:50:49.517Z,310
2017-04-06T13:51:59.865Z,215
2017-04-06T13:53:09.926Z,300
2017-04-06T13:54:20.286Z,290
2017-04-06T13:55:30.630Z,285
2017-04-06T13:56:40.341Z,245
2017-04-06T13:57:50.683Z,185
2017-04-06T13:59:01.045Z,200
2017-04-06T14:00:11.076Z,270
2017-04-06T14:01:21.457Z,225
2017-04-06T14:02:31.518Z,275
2017-04-06T14:03:41.876Z,270
2017-04-06T14:04:52.224Z,265
2017-04-06T14:06:02.566Z,260
2017-04-06T14:07:12.931Z,250
2017-04-06T14:08:22.984Z,220
2017-04-06T14:09:33.340Z,140
2017-04-06T14:10:43.386Z,155
2017-04-06T14:11:53.414Z,270
2017-04-06T14:13:03.774Z,160
2017-04-06T14:14:14.129Z,160
2017-04-06T14:15:24.484Z,170
2017-04-06T14:16:34.817Z,175
2017-04-06T14:17:45.178Z,170
2017-04-06T14:18:55.531Z,180
2017-04-06T14:20:05.885Z,170
2017-04-06T14:21:16.265Z,215
2017-04-06T14:22:26.630Z,260
2017-04-06T14:23:36.962Z,185
2017-04-06T14:24:47.324Z,140
2017-04-06T14:25:57.679Z,125
2017-04-06T14:27:08.527Z,125
2017-04-06T14:28:18.893Z,115
2017-04-06T14:29:28.915Z,120
2017-04-06T14:30:38.962Z,125
2017-04-06T14:31:49.337Z,190
2017-04-06T14:32:59.688Z,200
2017-04-06T14:34:10.025Z,140
2017-04-06T14:35:20.392Z,120
2017-04-06T14:36:30.420Z,125
2017-04-06T14:37:41.016Z,205
2017-04-06T14:38:51.348Z,125
2017-04-06T14:40:01.441Z,115
2017-04-06T14:41:11.475Z,115
2017-04-06T14:42:21.493Z,110
2017-04-06T14:43:31.527Z,105
2017-04-06T14:44:41.887Z,100
2017-04-06T14:45:51.992Z,100
2017-04-06T14:47:01.703Z,105
2017-04-06T14:48:12.059Z,125
2017-04-06T14:49:22.394Z,125
2017-04-06T14:50:32.750Z,190
2017-04-06T14:51:43.100Z,190
2017-04-06T14:52:53.433Z,195
2017-04-06T14:54:03.168Z,205
2017-04-06T14:55:13.523Z,220
2017-04-06T14:56:23.579Z,215
2017-04-06T14:57:33.298Z,220
2017-04-06T14:58:43.333Z,195
2017-04-06T14:59:53.668Z,170
2017-04-06T15:01:04.040Z,180
2017-04-06T15:02:14.641Z,225
2017-04-06T15:03:25.210Z,240
2017-04-06T15:04:35.258Z,225
2017-04-06T15:05:45.610Z,205
2017-04-06T15:06:55.644Z,205
2017-04-06T15:08:05.671Z,195
2017-04-06T15:09:16.048Z,180
2017-04-06T15:10:26.381Z,170
2017-04-06T15:11:36.414Z,160
2017-04-06T15:12:46.120Z,145
2017-04-06T15:13:56.460Z,170
2017-04-06T15:15:06.821Z,175
2017-04-06T15:16:16.877Z,130
2017-04-06T15:17:27.223Z,125
2017-04-06T15:18:37.569Z,125
2017-04-06T15:19:47.905Z,150
2017-04-06T15:20:58.281Z,115
2017-04-06T15:22:08.625Z,105
2017-04-06T15:23:18.668Z,90
2017-04-06T15:24:29.014Z,80
2017-04-06T15:25:39.361Z,70
2017-04-06T15:26:49.640Z,70
2017-04-06T15:27:59.683Z,75
2017-04-06T15:29:09.388Z,75
2017-04-06T15:30:19.727Z,90
2017-04-06T15:31:29.484Z,140
2017-04-06T15:32:39.829Z,170
2017-04-06T15:33:50.174Z,185
2017-04-06T15:35:00.209Z,180
2017-04-06T15:36:10.548Z,165
2017-04-06T15:37:20.887Z,160
2017-04-06T15:38:31.274Z,150
2017-04-06T15:39:41.624Z,150
2017-04-06T15:40:51.977Z,145
2017-04-06T15:42:02.308Z,105
2017-04-06T15:43:12.673Z,115
2017-04-06T15:44:22.711Z,110
2017-04-06T15:45:33.080Z,110
2017-04-06T15:46:43.110Z,75
2017-04-06T15:47:53.198Z,75
2017-04-06T15:49:03.557Z,75
2017-04-06T15:50:13.918Z,75
2017-04-06T15:51:24.284Z,80
2017-04-06T15:52:34.004Z,95
2017-04-06T15:53:44.340Z,120
2017-04-06T15:54:54.373Z,130
2017-04-06T15:56:04.424Z,140
2017-04-06T15:57:14.750Z,140
2017-04-06T15:58:25.115Z,140
2017-04-06T15:59:35.544Z,140
2017-04-06T16:00:45.907Z,130
2017-04-06T16:01:56.248Z,125
2017-04-06T16:03:06.613Z,120
2017-04-06T16:04:16.944Z,110
2017-04-06T16:05:27.276Z,85
2017-04-06T16:06:37.306Z,90
2017-04-06T16:07:47.924Z,65
2017-04-06T16:08:58.371Z,60
2017-04-06T16:10:08.733Z,60
2017-04-06T16:11:19.079Z,80
2017-04-06T16:12:29.429Z,85
2017-04-06T16:13:39.779Z,80
2017-04-06T16:14:49.494Z,95
2017-04-06T16:15:59.855Z,80
2017-04-06T16:17:10.200Z,100
2017-04-06T16:18:20.239Z,85
2017-04-06T16:19:30.588Z,80
2017-04-06T16:20:40.920Z,75
2017-04-06T16:21:51.040Z,60
2017-04-06T16:23:00.861Z,55
2017-04-06T16:24:11.204Z,55
2017-04-06T16:25:21.553Z,60
2017-04-06T16:26:31.926Z,65
2017-04-06T16:27:41.938Z,70
2017-04-06T16:28:52.316Z,75
2017-04-06T16:30:02.671Z,75
2017-04-06T16:31:13.022Z,75
2017-04-06T16:32:23.081Z,60
2017-04-06T16:33:33.137Z,70
2017-04-06T16:34:43.173Z,70
2017-04-06T16:35:53.511Z,70
2017-04-06T16:37:03.239Z,60
2017-04-06T16:38:12.982Z,60
2017-04-06T16:39:23.320Z,55
2017-04-06T16:40:33.368Z,55
2017-04-06T16:41:43.713Z,55
2017-04-06T16:42:54.061Z,50
2017-04-06T16:44:04.092Z,50
2017-04-06T16:45:14.427Z,50
2017-04-06T16:46:25.018Z,50
2017-04-06T16:47:35.043Z,50
2017-04-06T16:48:44.760Z,45
2017-04-06T16:49:55.120Z,50
2017-04-06T16:51:05.482Z,45
2017-04-06T16:52:15.840Z,40
2017-04-06T16:53:26.194Z,40
2017-04-06T16:54:36.565Z,35
2017-04-06T16:55:46.899Z,35
2017-04-06T16:56:56.616Z,35
2017-04-06T16:58:06.982Z,30
2017-04-06T16:59:17.312Z,30